sensor_id;sensor_type;location;lat;lon;timestamp;P1;durP1;ratioP1;P2;durP2;ratioP2
19225;SDS011;9747;48.536;12.522;2023-10-09T00:01:51;3.05;;;2.85;;
19225;SDS011;9747;48.536;12.522;2023-10-09T00:04:20;3.22;;;2.60;;
19225;SDS011;9747;48.536;12.522;2023-10-09T00:06:48;3.45;;;2.67;;
19225;SDS011;9747;48.536;12.522;2023-10-09T00:09:18;3.28;;;2.92;;
19225;SDS011;9747;48.536;12.522;2023-10-09T00:11:57;3.83;;;3.03;;
19225;SDS011;9747;48.536;12.522;2023-10-09T00:14:26;3.45;;;2.90;;
19225;SDS011;9747;48.536;12.522;2023-10-09T00:16:55;3.47;;;2.60;;
19225;SDS011;9747;48.536;12.522;2023-10-09T00:19:43;3.00;;;2.53;;
19225;SDS011;9747;48.536;12.522;2023-10-09T00:22:13;3.97;;;2.55;;
19225;SDS011;9747;48.536;12.522;2023-10-09T00:24:55;3.50;;;2.80;;
19225;SDS011;9747;48.536;12.522;2023-10-09T00:27:37;4.03;;;2.95;;
19225;SDS011;9747;48.536;12.522;2023-10-09T00:30:08;2.97;;;2.70;;
19225;SDS011;9747;48.536;12.522;2023-10-09T00:32:40;2.88;;;2.63;;
19225;SDS011;9747;48.536;12.522;2023-10-09T00:35:11;3.47;;;2.30;;
19225;SDS011;9747;48.536;12.522;2023-10-09T00:37:57;3.22;;;2.40;;
19225;SDS011;9747;48.536;12.522;2023-10-09T00:40:32;2.85;;;2.63;;
19225;SDS011;9747;48.536;12.522;2023-10-09T00:43:10;4.15;;;2.80;;
19225;SDS011;9747;48.536;12.522;2023-10-09T00:45:39;3.70;;;2.78;;
19225;SDS011;9747;48.536;12.522;2023-10-09T00:48:09;2.83;;;2.60;;
19225;SDS011;9747;48.536;12.522;2023-10-09T00:50:40;3.00;;;2.60;;
19225;SDS011;9747;48.536;12.522;2023-10-09T00:53:17;2.83;;;2.63;;
19225;SDS011;9747;48.536;12.522;2023-10-09T00:55:56;2.95;;;2.67;;
19225;SDS011;9747;48.536;12.522;2023-10-09T00:58:28;2.88;;;2.67;;
19225;SDS011;9747;48.536;12.522;2023-10-09T01:01:01;3.03;;;2.70;;
19225;SDS011;9747;48.536;12.522;2023-10-09T01:03:30;2.53;;;2.33;;
19225;SDS011;9747;48.536;12.522;2023-10-09T01:06:01;3.33;;;2.88;;
19225;SDS011;9747;48.536;12.522;2023-10-09T01:08:42;4.45;;;3.00;;
19225;SDS011;9747;48.536;12.522;2023-10-09T01:11:20;3.28;;;2.65;;
19225;SDS011;9747;48.536;12.522;2023-10-09T01:13:49;2.85;;;2.65;;
19225;SDS011;9747;48.536;12.522;2023-10-09T01:16:25;2.80;;;2.60;;
19225;SDS011;9747;48.536;12.522;2023-10-09T01:18:56;2.95;;;2.72;;
19225;SDS011;9747;48.536;12.522;2023-10-09T01:21:26;2.60;;;2.40;;
19225;SDS011;9747;48.536;12.522;2023-10-09T01:23:58;3.33;;;2.58;;
19225;SDS011;9747;48.536;12.522;2023-10-09T01:26:29;2.97;;;2.55;;
19225;SDS011;9747;48.536;12.522;2023-10-09T01:28:59;3.55;;;3.00;;
19225;SDS011;9747;48.536;12.522;2023-10-09T01:31:27;3.58;;;2.65;;
19225;SDS011;9747;48.536;12.522;2023-10-09T01:34:02;3.47;;;2.88;;
19225;SDS011;9747;48.536;12.522;2023-10-09T01:36:35;4.45;;;3.13;;
19225;SDS011;9747;48.536;12.522;2023-10-09T01:39:06;3.03;;;2.72;;
19225;SDS011;9747;48.536;12.522;2023-10-09T01:41:46;2.95;;;2.75;;
19225;SDS011;9747;48.536;12.522;2023-10-09T01:44:17;2.80;;;2.60;;
19225;SDS011;9747;48.536;12.522;2023-10-09T01:46:45;2.83;;;2.63;;
19225;SDS011;9747;48.536;12.522;2023-10-09T01:49:12;2.80;;;2.60;;
19225;SDS011;9747;48.536;12.522;2023-10-09T01:51:48;3.20;;;2.90;;
19225;SDS011;9747;48.536;12.522;2023-10-09T01:54:17;3.70;;;2.60;;
19225;SDS011;9747;48.536;12.522;2023-10-09T01:56:58;3.13;;;2.83;;
19225;SDS011;9747;48.536;12.522;2023-10-09T01:59:31;3.10;;;2.80;;
19225;SDS011;9747;48.536;12.522;2023-10-09T02:02:03;2.60;;;2.40;;
19225;SDS011;9747;48.536;12.522;2023-10-09T02:04:39;2.65;;;2.45;;
19225;SDS011;9747;48.536;12.522;2023-10-09T02:07:07;2.95;;;2.58;;
19225;SDS011;9747;48.536;12.522;2023-10-09T02:09:36;3.35;;;2.85;;
19225;SDS011;9747;48.536;12.522;2023-10-09T02:12:12;3.28;;;2.35;;
19225;SDS011;9747;48.536;12.522;2023-10-09T02:14:39;3.28;;;2.50;;
19225;SDS011;9747;48.536;12.522;2023-10-09T02:17:09;2.55;;;2.35;;
19225;SDS011;9747;48.536;12.522;2023-10-09T02:19:43;3.08;;;2.75;;
19225;SDS011;9747;48.536;12.522;2023-10-09T02:22:14;2.80;;;2.20;;
19225;SDS011;9747;48.536;12.522;2023-10-09T02:24:44;3.22;;;2.53;;
19225;SDS011;9747;48.536;12.522;2023-10-09T02:27:23;2.50;;;2.30;;
19225;SDS011;9747;48.536;12.522;2023-10-09T02:30:14;2.70;;;2.50;;
19225;SDS011;9747;48.536;12.522;2023-10-09T02:32:45;3.95;;;2.90;;
19225;SDS011;9747;48.536;12.522;2023-10-09T02:35:18;3.53;;;2.60;;
19225;SDS011;9747;48.536;12.522;2023-10-09T02:37:53;3.63;;;2.67;;
19225;SDS011;9747;48.536;12.522;2023-10-09T02:40:25;3.30;;;2.53;;
19225;SDS011;9747;48.536;12.522;2023-10-09T02:42:57;2.88;;;2.67;;
19225;SDS011;9747;48.536;12.522;2023-10-09T02:45:24;2.97;;;2.70;;
19225;SDS011;9747;48.536;12.522;2023-10-09T02:47:58;2.83;;;2.63;;
19225;SDS011;9747;48.536;12.522;2023-10-09T02:50:34;2.90;;;2.70;;
19225;SDS011;9747;48.536;12.522;2023-10-09T02:53:03;3.40;;;2.90;;
19225;SDS011;9747;48.536;12.522;2023-10-09T02:55:36;2.90;;;2.70;;
19225;SDS011;9747;48.536;12.522;2023-10-09T02:58:04;2.75;;;2.55;;
19225;SDS011;9747;48.536;12.522;2023-10-09T03:00:36;3.58;;;2.78;;
19225;SDS011;9747;48.536;12.522;2023-10-09T03:03:05;3.05;;;2.75;;
19225;SDS011;9747;48.536;12.522;2023-10-09T03:05:32;2.55;;;2.35;;
19225;SDS011;9747;48.536;12.522;2023-10-09T03:08:07;3.20;;;2.90;;
19225;SDS011;9747;48.536;12.522;2023-10-09T03:10:38;2.80;;;2.60;;
19225;SDS011;9747;48.536;12.522;2023-10-09T03:13:06;2.60;;;2.40;;
19225;SDS011;9747;48.536;12.522;2023-10-09T03:15:33;3.10;;;2.60;;
19225;SDS011;9747;48.536;12.522;2023-10-09T03:18:01;3.42;;;3.00;;
19225;SDS011;9747;48.536;12.522;2023-10-09T03:20:30;3.38;;;2.65;;
19225;SDS011;9747;48.536;12.522;2023-10-09T03:22:57;2.88;;;2.58;;
19225;SDS011;9747;48.536;12.522;2023-10-09T03:25:26;2.88;;;2.67;;
19225;SDS011;9747;48.536;12.522;2023-10-09T03:27:55;3.03;;;2.67;;
19225;SDS011;9747;48.536;12.522;2023-10-09T03:30:24;2.92;;;2.72;;
19225;SDS011;9747;48.536;12.522;2023-10-09T03:32:52;2.95;;;2.65;;
19225;SDS011;9747;48.536;12.522;2023-10-09T03:35:22;4.30;;;2.70;;
19225;SDS011;9747;48.536;12.522;2023-10-09T03:37:54;2.80;;;2.50;;
19225;SDS011;9747;48.536;12.522;2023-10-09T03:40:27;2.80;;;2.60;;
19225;SDS011;9747;48.536;12.522;2023-10-09T03:42:58;3.75;;;2.72;;
19225;SDS011;9747;48.536;12.522;2023-10-09T03:45:26;3.85;;;2.80;;
19225;SDS011;9747;48.536;12.522;2023-10-09T03:47:56;2.85;;;2.58;;
19225;SDS011;9747;48.536;12.522;2023-10-09T03:50:29;3.53;;;2.83;;
19225;SDS011;9747;48.536;12.522;2023-10-09T03:53:03;2.83;;;2.47;;
19225;SDS011;9747;48.536;12.522;2023-10-09T03:55:34;2.80;;;2.50;;
19225;SDS011;9747;48.536;12.522;2023-10-09T03:58:04;3.08;;;2.42;;
19225;SDS011;9747;48.536;12.522;2023-10-09T04:00:33;3.90;;;2.70;;
19225;SDS011;9747;48.536;12.522;2023-10-09T04:03:10;2.53;;;2.30;;
19225;SDS011;9747;48.536;12.522;2023-10-09T04:05:39;3.17;;;2.63;;
19225;SDS011;9747;48.536;12.522;2023-10-09T04:08:08;3.08;;;2.80;;
19225;SDS011;9747;48.536;12.522;2023-10-09T04:10:45;3.90;;;2.60;;
19225;SDS011;9747;48.536;12.522;2023-10-09T04:13:19;3.42;;;2.38;;
19225;SDS011;9747;48.536;12.522;2023-10-09T04:15:51;6.25;;;3.03;;
19225;SDS011;9747;48.536;12.522;2023-10-09T04:18:19;4.78;;;2.72;;
19225;SDS011;9747;48.536;12.522;2023-10-09T04:20:58;21.75;;;4.03;;
19225;SDS011;9747;48.536;12.522;2023-10-09T04:23:43;12.88;;;3.35;;
19225;SDS011;9747;48.536;12.522;2023-10-09T04:26:34;8.07;;;3.25;;
19225;SDS011;9747;48.536;12.522;2023-10-09T04:29:06;7.05;;;3.10;;
19225;SDS011;9747;48.536;12.522;2023-10-09T04:31:35;6.65;;;2.78;;
19225;SDS011;9747;48.536;12.522;2023-10-09T04:34:03;5.13;;;2.85;;
19225;SDS011;9747;48.536;12.522;2023-10-09T04:36:54;4.88;;;3.22;;
19225;SDS011;9747;48.536;12.522;2023-10-09T04:39:26;7.35;;;2.65;;
19225;SDS011;9747;48.536;12.522;2023-10-09T04:42:13;12.07;;;3.22;;
19225;SDS011;9747;48.536;12.522;2023-10-09T04:45:03;5.85;;;3.28;;
19225;SDS011;9747;48.536;12.522;2023-10-09T04:47:50;3.33;;;2.72;;
19225;SDS011;9747;48.536;12.522;2023-10-09T04:50:31;5.28;;;3.00;;
19225;SDS011;9747;48.536;12.522;2023-10-09T04:53:44;4.55;;;2.78;;
19225;SDS011;9747;48.536;12.522;2023-10-09T04:56:13;4.63;;;2.70;;
19225;SDS011;9747;48.536;12.522;2023-10-09T04:58:42;4.72;;;2.85;;
19225;SDS011;9747;48.536;12.522;2023-10-09T05:01:13;5.53;;;2.60;;
19225;SDS011;9747;48.536;12.522;2023-10-09T05:04:01;4.53;;;2.70;;
19225;SDS011;9747;48.536;12.522;2023-10-09T05:06:40;4.43;;;2.88;;
19225;SDS011;9747;48.536;12.522;2023-10-09T05:09:20;5.65;;;2.75;;
19225;SDS011;9747;48.536;12.522;2023-10-09T05:11:49;3.67;;;2.70;;
19225;SDS011;9747;48.536;12.522;2023-10-09T05:14:19;3.90;;;2.65;;
19225;SDS011;9747;48.536;12.522;2023-10-09T05:17:06;3.85;;;2.70;;
19225;SDS011;9747;48.536;12.522;2023-10-09T05:19:41;5.28;;;2.72;;
19225;SDS011;9747;48.536;12.522;2023-10-09T05:22:20;4.95;;;3.10;;
19225;SDS011;9747;48.536;12.522;2023-10-09T05:25:01;4.55;;;2.97;;
19225;SDS011;9747;48.536;12.522;2023-10-09T05:27:41;4.15;;;2.35;;
19225;SDS011;9747;48.536;12.522;2023-10-09T05:30:15;4.57;;;2.88;;
19225;SDS011;9747;48.536;12.522;2023-10-09T05:32:54;5.00;;;2.80;;
19225;SDS011;9747;48.536;12.522;2023-10-09T05:35:24;4.00;;;2.70;;
19225;SDS011;9747;48.536;12.522;2023-10-09T05:38:06;3.88;;;3.08;;
19225;SDS011;9747;48.536;12.522;2023-10-09T05:40:49;3.83;;;2.70;;
19225;SDS011;9747;48.536;12.522;2023-10-09T05:43:19;5.82;;;3.00;;
19225;SDS011;9747;48.536;12.522;2023-10-09T05:46:05;3.63;;;2.38;;
19225;SDS011;9747;48.536;12.522;2023-10-09T05:48:41;3.67;;;2.58;;
19225;SDS011;9747;48.536;12.522;2023-10-09T05:51:20;5.30;;;2.47;;
19225;SDS011;9747;48.536;12.522;2023-10-09T05:54:05;4.18;;;2.67;;
19225;SDS011;9747;48.536;12.522;2023-10-09T05:57:09;3.53;;;2.83;;
19225;SDS011;9747;48.536;12.522;2023-10-09T05:59:54;4.75;;;2.60;;
19225;SDS011;9747;48.536;12.522;2023-10-09T06:02:39;3.72;;;2.90;;
19225;SDS011;9747;48.536;12.522;2023-10-09T06:05:25;4.57;;;2.65;;
19225;SDS011;9747;48.536;12.522;2023-10-09T06:08:16;3.55;;;2.85;;
19225;SDS011;9747;48.536;12.522;2023-10-09T06:10:50;4.90;;;2.65;;
19225;SDS011;9747;48.536;12.522;2023-10-09T06:13:31;4.70;;;2.85;;
19225;SDS011;9747;48.536;12.522;2023-10-09T06:16:10;4.22;;;2.47;;
19225;SDS011;9747;48.536;12.522;2023-10-09T06:18:57;5.38;;;2.83;;
19225;SDS011;9747;48.536;12.522;2023-10-09T06:21:38;4.13;;;2.40;;
19225;SDS011;9747;48.536;12.522;2023-10-09T06:24:25;3.50;;;2.78;;
19225;SDS011;9747;48.536;12.522;2023-10-09T06:26:58;3.75;;;2.65;;
19225;SDS011;9747;48.536;12.522;2023-10-09T06:29:39;3.53;;;2.45;;
19225;SDS011;9747;48.536;12.522;2023-10-09T06:32:37;4.30;;;2.63;;
19225;SDS011;9747;48.536;12.522;2023-10-09T06:35:14;4.68;;;2.60;;
19225;SDS011;9747;48.536;12.522;2023-10-09T06:37:45;3.67;;;2.92;;
19225;SDS011;9747;48.536;12.522;2023-10-09T06:40:31;4.95;;;2.97;;
19225;SDS011;9747;48.536;12.522;2023-10-09T06:43:18;5.53;;;2.70;;
19225;SDS011;9747;48.536;12.522;2023-10-09T06:45:53;7.18;;;2.70;;
19225;SDS011;9747;48.536;12.522;2023-10-09T06:48:23;4.80;;;2.67;;
19225;SDS011;9747;48.536;12.522;2023-10-09T06:51:20;6.03;;;2.75;;
19225;SDS011;9747;48.536;12.522;2023-10-09T06:54:16;2.78;;;2.35;;
19225;SDS011;9747;48.536;12.522;2023-10-09T06:56:43;4.72;;;2.85;;
19225;SDS011;9747;48.536;12.522;2023-10-09T06:59:38;2.58;;;2.33;;
19225;SDS011;9747;48.536;12.522;2023-10-09T07:02:29;3.47;;;2.50;;
19225;SDS011;9747;48.536;12.522;2023-10-09T07:05:11;3.35;;;2.53;;
19225;SDS011;9747;48.536;12.522;2023-10-09T07:07:42;4.65;;;2.85;;
19225;SDS011;9747;48.536;12.522;2023-10-09T07:10:21;5.80;;;2.30;;
19225;SDS011;9747;48.536;12.522;2023-10-09T07:12:57;2.60;;;2.40;;
19225;SDS011;9747;48.536;12.522;2023-10-09T07:15:25;4.57;;;2.45;;
19225;SDS011;9747;48.536;12.522;2023-10-09T07:18:10;5.95;;;3.03;;
19225;SDS011;9747;48.536;12.522;2023-10-09T07:20:48;3.92;;;2.70;;
19225;SDS011;9747;48.536;12.522;2023-10-09T07:23:26;3.25;;;2.70;;
19225;SDS011;9747;48.536;12.522;2023-10-09T07:26:04;6.10;;;2.55;;
19225;SDS011;9747;48.536;12.522;2023-10-09T07:28:48;3.75;;;2.75;;
19225;SDS011;9747;48.536;12.522;2023-10-09T07:31:25;3.33;;;2.50;;
19225;SDS011;9747;48.536;12.522;2023-10-09T07:33:54;5.30;;;2.65;;
19225;SDS011;9747;48.536;12.522;2023-10-09T07:36:25;3.55;;;2.70;;
19225;SDS011;9747;48.536;12.522;2023-10-09T07:39:03;4.78;;;2.60;;
19225;SDS011;9747;48.536;12.522;2023-10-09T07:41:41;5.22;;;2.70;;
19225;SDS011;9747;48.536;12.522;2023-10-09T07:44:21;5.32;;;2.92;;
19225;SDS011;9747;48.536;12.522;2023-10-09T07:47:02;6.78;;;2.75;;
19225;SDS011;9747;48.536;12.522;2023-10-09T07:49:42;3.80;;;2.40;;
19225;SDS011;9747;48.536;12.522;2023-10-09T07:52:14;5.43;;;2.83;;
19225;SDS011;9747;48.536;12.522;2023-10-09T07:54:42;5.05;;;2.75;;
19225;SDS011;9747;48.536;12.522;2023-10-09T07:57:19;4.55;;;2.67;;
19225;SDS011;9747;48.536;12.522;2023-10-09T07:59:54;5.95;;;2.70;;
19225;SDS011;9747;48.536;12.522;2023-10-09T08:02:27;4.07;;;2.63;;
19225;SDS011;9747;48.536;12.522;2023-10-09T08:04:58;3.70;;;2.60;;
19225;SDS011;9747;48.536;12.522;2023-10-09T08:07:44;6.57;;;2.30;;
19225;SDS011;9747;48.536;12.522;2023-10-09T08:10:19;4.65;;;2.95;;
19225;SDS011;9747;48.536;12.522;2023-10-09T08:13:06;3.17;;;2.47;;
19225;SDS011;9747;48.536;12.522;2023-10-09T08:15:47;4.15;;;2.45;;
19225;SDS011;9747;48.536;12.522;2023-10-09T08:18:21;2.78;;;2.38;;
19225;SDS011;9747;48.536;12.522;2023-10-09T08:20:54;4.50;;;2.72;;
19225;SDS011;9747;48.536;12.522;2023-10-09T08:23:54;4.07;;;2.53;;
19225;SDS011;9747;48.536;12.522;2023-10-09T08:26:21;3.75;;;2.50;;
19225;SDS011;9747;48.536;12.522;2023-10-09T08:28:55;4.70;;;2.45;;
19225;SDS011;9747;48.536;12.522;2023-10-09T08:31:43;4.07;;;2.55;;
19225;SDS011;9747;48.536;12.522;2023-10-09T08:34:12;4.10;;;2.50;;
19225;SDS011;9747;48.536;12.522;2023-10-09T08:36:50;4.22;;;2.65;;
19225;SDS011;9747;48.536;12.522;2023-10-09T08:39:18;4.38;;;2.75;;
19225;SDS011;9747;48.536;12.522;2023-10-09T08:41:52;3.42;;;2.58;;
19225;SDS011;9747;48.536;12.522;2023-10-09T08:44:24;3.70;;;2.80;;
19225;SDS011;9747;48.536;12.522;2023-10-09T08:46:57;2.78;;;2.40;;
19225;SDS011;9747;48.536;12.522;2023-10-09T08:49:24;3.38;;;2.50;;
19225;SDS011;9747;48.536;12.522;2023-10-09T08:51:53;2.95;;;2.60;;
19225;SDS011;9747;48.536;12.522;2023-10-09T08:54:21;3.58;;;2.50;;
19225;SDS011;9747;48.536;12.522;2023-10-09T08:56:49;4.70;;;2.40;;
19225;SDS011;9747;48.536;12.522;2023-10-09T08:59:17;2.88;;;2.25;;
19225;SDS011;9747;48.536;12.522;2023-10-09T09:01:47;3.03;;;2.30;;
19225;SDS011;9747;48.536;12.522;2023-10-09T09:04:33;2.40;;;2.20;;
19225;SDS011;9747;48.536;12.522;2023-10-09T09:07:02;4.65;;;2.60;;
19225;SDS011;9747;48.536;12.522;2023-10-09T09:09:30;2.83;;;2.25;;
19225;SDS011;9747;48.536;12.522;2023-10-09T09:11:59;4.15;;;2.80;;
19225;SDS011;9747;48.536;12.522;2023-10-09T09:14:35;3.10;;;2.22;;
19225;SDS011;9747;48.536;12.522;2023-10-09T09:17:06;3.97;;;2.60;;
19225;SDS011;9747;48.536;12.522;2023-10-09T09:19:36;3.88;;;2.28;;
19225;SDS011;9747;48.536;12.522;2023-10-09T09:22:04;5.85;;;2.30;;
19225;SDS011;9747;48.536;12.522;2023-10-09T09:24:39;4.28;;;2.40;;
19225;SDS011;9747;48.536;12.522;2023-10-09T09:27:28;2.95;;;2.10;;
19225;SDS011;9747;48.536;12.522;2023-10-09T09:30:24;3.88;;;2.20;;
19225;SDS011;9747;48.536;12.522;2023-10-09T09:32:59;3.30;;;2.30;;
19225;SDS011;9747;48.536;12.522;2023-10-09T09:35:58;3.03;;;2.33;;
19225;SDS011;9747;48.536;12.522;2023-10-09T09:38:29;3.10;;;2.53;;
19225;SDS011;9747;48.536;12.522;2023-10-09T09:41:07;3.00;;;2.13;;
19225;SDS011;9747;48.536;12.522;2023-10-09T09:43:36;3.45;;;2.63;;
19225;SDS011;9747;48.536;12.522;2023-10-09T09:46:06;3.83;;;2.58;;
19225;SDS011;9747;48.536;12.522;2023-10-09T09:48:40;3.20;;;2.55;;
19225;SDS011;9747;48.536;12.522;2023-10-09T09:51:12;3.95;;;2.17;;
19225;SDS011;9747;48.536;12.522;2023-10-09T09:53:42;2.50;;;2.05;;
19225;SDS011;9747;48.536;12.522;2023-10-09T09:56:14;2.85;;;2.38;;
19225;SDS011;9747;48.536;12.522;2023-10-09T09:58:43;4.20;;;2.28;;
19225;SDS011;9747;48.536;12.522;2023-10-09T10:01:18;4.28;;;2.20;;
19225;SDS011;9747;48.536;12.522;2023-10-09T10:03:52;6.78;;;2.67;;
19225;SDS011;9747;48.536;12.522;2023-10-09T10:06:22;3.55;;;2.13;;
19225;SDS011;9747;48.536;12.522;2023-10-09T10:08:53;2.67;;;2.15;;
19225;SDS011;9747;48.536;12.522;2023-10-09T10:14:11;2.50;;;2.25;;
19225;SDS011;9747;48.536;12.522;2023-10-09T10:16:59;5.63;;;2.25;;
19225;SDS011;9747;48.536;12.522;2023-10-09T10:22:50;3.60;;;2.20;;
19225;SDS011;9747;48.536;12.522;2023-10-09T10:25:33;4.03;;;2.17;;
19225;SDS011;9747;48.536;12.522;2023-10-09T10:28:15;2.65;;;2.35;;
19225;SDS011;9747;48.536;12.522;2023-10-09T10:30:53;4.93;;;2.50;;
19225;SDS011;9747;48.536;12.522;2023-10-09T10:33:25;3.78;;;2.15;;
19225;SDS011;9747;48.536;12.522;2023-10-09T10:35:55;4.50;;;2.30;;
19225;SDS011;9747;48.536;12.522;2023-10-09T10:38:26;3.55;;;2.22;;
19225;SDS011;9747;48.536;12.522;2023-10-09T10:41:08;3.97;;;2.50;;
19225;SDS011;9747;48.536;12.522;2023-10-09T10:43:41;3.95;;;2.40;;
19225;SDS011;9747;48.536;12.522;2023-10-09T10:46:24;4.95;;;2.20;;
19225;SDS011;9747;48.536;12.522;2023-10-09T10:49:03;4.22;;;2.40;;
19225;SDS011;9747;48.536;12.522;2023-10-09T10:51:47;3.10;;;2.05;;
19225;SDS011;9747;48.536;12.522;2023-10-09T10:54:26;4.72;;;2.33;;
19225;SDS011;9747;48.536;12.522;2023-10-09T10:57:18;4.38;;;2.40;;
19225;SDS011;9747;48.536;12.522;2023-10-09T10:59:54;5.47;;;2.20;;
19225;SDS011;9747;48.536;12.522;2023-10-09T11:03:03;3.25;;;2.33;;
19225;SDS011;9747;48.536;12.522;2023-10-09T11:05:57;2.22;;;1.95;;
19225;SDS011;9747;48.536;12.522;2023-10-09T11:08:44;2.50;;;2.25;;
19225;SDS011;9747;48.536;12.522;2023-10-09T11:11:19;2.35;;;2.00;;
19225;SDS011;9747;48.536;12.522;2023-10-09T11:13:48;4.43;;;2.45;;
19225;SDS011;9747;48.536;12.522;2023-10-09T11:16:22;2.70;;;2.22;;
19225;SDS011;9747;48.536;12.522;2023-10-09T11:19:07;3.10;;;2.05;;
19225;SDS011;9747;48.536;12.522;2023-10-09T11:21:55;3.53;;;2.10;;
19225;SDS011;9747;48.536;12.522;2023-10-09T11:24:42;3.95;;;2.63;;
19225;SDS011;9747;48.536;12.522;2023-10-09T11:27:12;2.50;;;1.92;;
19225;SDS011;9747;48.536;12.522;2023-10-09T11:29:47;3.72;;;2.17;;
19225;SDS011;9747;48.536;12.522;2023-10-09T11:32:30;2.88;;;2.10;;
19225;SDS011;9747;48.536;12.522;2023-10-09T11:35:09;2.47;;;2.13;;
19225;SDS011;9747;48.536;12.522;2023-10-09T11:37:42;3.65;;;1.90;;
19225;SDS011;9747;48.536;12.522;2023-10-09T11:43:00;4.43;;;2.20;;
19225;SDS011;9747;48.536;12.522;2023-10-09T11:45:29;3.35;;;2.33;;
19225;SDS011;9747;48.536;12.522;2023-10-09T11:48:15;3.08;;;2.00;;
19225;SDS011;9747;48.536;12.522;2023-10-09T11:50:51;5.03;;;2.13;;
19225;SDS011;9747;48.536;12.522;2023-10-09T11:53:21;3.63;;;2.15;;
19225;SDS011;9747;48.536;12.522;2023-10-09T11:56:03;2.72;;;2.03;;
19225;SDS011;9747;48.536;12.522;2023-10-09T11:58:30;4.20;;;2.22;;
19225;SDS011;9747;48.536;12.522;2023-10-09T12:00:58;3.25;;;2.20;;
19225;SDS011;9747;48.536;12.522;2023-10-09T12:03:28;2.35;;;2.15;;
19225;SDS011;9747;48.536;12.522;2023-10-09T12:05:57;3.85;;;2.17;;
19225;SDS011;9747;48.536;12.522;2023-10-09T12:08:29;3.28;;;2.22;;
19225;SDS011;9747;48.536;12.522;2023-10-09T12:10:57;2.60;;;2.10;;
19225;SDS011;9747;48.536;12.522;2023-10-09T12:13:29;2.88;;;2.13;;
19225;SDS011;9747;48.536;12.522;2023-10-09T12:15:57;2.95;;;2.20;;
19225;SDS011;9747;48.536;12.522;2023-10-09T12:18:25;3.17;;;2.20;;
19225;SDS011;9747;48.536;12.522;2023-10-09T12:20:53;3.08;;;2.13;;
19225;SDS011;9747;48.536;12.522;2023-10-09T12:23:28;5.75;;;2.13;;
19225;SDS011;9747;48.536;12.522;2023-10-09T12:26:01;2.25;;;2.00;;
19225;SDS011;9747;48.536;12.522;2023-10-09T12:28:31;2.70;;;2.15;;
19225;SDS011;9747;48.536;12.522;2023-10-09T12:30:59;5.57;;;2.20;;
19225;SDS011;9747;48.536;12.522;2023-10-09T12:33:28;4.70;;;2.20;;
19225;SDS011;9747;48.536;12.522;2023-10-09T12:35:57;3.67;;;1.85;;
19225;SDS011;9747;48.536;12.522;2023-10-09T12:38:26;3.33;;;2.33;;
19225;SDS011;9747;48.536;12.522;2023-10-09T12:41:04;1.98;;;1.80;;
19225;SDS011;9747;48.536;12.522;2023-10-09T12:43:45;2.63;;;2.00;;
19225;SDS011;9747;48.536;12.522;2023-10-09T12:46:13;3.13;;;2.00;;
19225;SDS011;9747;48.536;12.522;2023-10-09T12:48:41;2.63;;;1.85;;
19225;SDS011;9747;48.536;12.522;2023-10-09T12:51:11;3.42;;;1.95;;
19225;SDS011;9747;48.536;12.522;2023-10-09T12:53:41;3.40;;;2.05;;
19225;SDS011;9747;48.536;12.522;2023-10-09T12:56:09;3.03;;;2.03;;
19225;SDS011;9747;48.536;12.522;2023-10-09T12:58:37;2.22;;;2.03;;
19225;SDS011;9747;48.536;12.522;2023-10-09T13:01:06;2.25;;;1.85;;
19225;SDS011;9747;48.536;12.522;2023-10-09T13:03:36;4.00;;;2.30;;
19225;SDS011;9747;48.536;12.522;2023-10-09T13:06:04;3.38;;;2.15;;
19225;SDS011;9747;48.536;12.522;2023-10-09T13:08:35;3.10;;;2.40;;
19225;SDS011;9747;48.536;12.522;2023-10-09T13:11:07;2.42;;;1.98;;
19225;SDS011;9747;48.536;12.522;2023-10-09T13:13:45;5.50;;;2.38;;
19225;SDS011;9747;48.536;12.522;2023-10-09T13:16:19;2.55;;;2.20;;
19225;SDS011;9747;48.536;12.522;2023-10-09T13:18:48;5.22;;;2.42;;
19225;SDS011;9747;48.536;12.522;2023-10-09T13:21:19;2.75;;;2.20;;
19225;SDS011;9747;48.536;12.522;2023-10-09T13:23:48;3.90;;;2.17;;
19225;SDS011;9747;48.536;12.522;2023-10-09T13:26:16;3.78;;;2.00;;
19225;SDS011;9747;48.536;12.522;2023-10-09T13:28:45;2.13;;;1.90;;
19225;SDS011;9747;48.536;12.522;2023-10-09T13:31:13;2.13;;;1.92;;
19225;SDS011;9747;48.536;12.522;2023-10-09T13:33:42;3.03;;;2.00;;
19225;SDS011;9747;48.536;12.522;2023-10-09T13:36:11;3.83;;;2.20;;
19225;SDS011;9747;48.536;12.522;2023-10-09T13:38:44;3.35;;;1.92;;
19225;SDS011;9747;48.536;12.522;2023-10-09T13:41:12;2.85;;;2.10;;
19225;SDS011;9747;48.536;12.522;2023-10-09T13:43:43;2.28;;;2.08;;
19225;SDS011;9747;48.536;12.522;2023-10-09T13:46:11;4.43;;;2.00;;
19225;SDS011;9747;48.536;12.522;2023-10-09T13:48:44;4.00;;;2.00;;
19225;SDS011;9747;48.536;12.522;2023-10-09T13:51:14;3.33;;;2.10;;
19225;SDS011;9747;48.536;12.522;2023-10-09T13:53:43;3.53;;;1.90;;
19225;SDS011;9747;48.536;12.522;2023-10-09T13:56:12;4.57;;;2.13;;
19225;SDS011;9747;48.536;12.522;2023-10-09T13:58:44;2.80;;;1.98;;
19225;SDS011;9747;48.536;12.522;2023-10-09T14:01:15;8.15;;;2.88;;
19225;SDS011;9747;48.536;12.522;2023-10-09T14:03:59;3.53;;;2.13;;
19225;SDS011;9747;48.536;12.522;2023-10-09T14:06:27;5.88;;;2.63;;
19225;SDS011;9747;48.536;12.522;2023-10-09T14:08:58;8.05;;;3.05;;
19225;SDS011;9747;48.536;12.522;2023-10-09T14:11:28;10.63;;;3.25;;
19225;SDS011;9747;48.536;12.522;2023-10-09T14:13:56;12.05;;;3.00;;
19225;SDS011;9747;48.536;12.522;2023-10-09T14:16:25;10.55;;;3.22;;
19225;SDS011;9747;48.536;12.522;2023-10-09T14:18:54;10.18;;;2.85;;
19225;SDS011;9747;48.536;12.522;2023-10-09T14:21:26;14.63;;;3.65;;
19225;SDS011;9747;48.536;12.522;2023-10-09T14:23:55;7.95;;;2.97;;
19225;SDS011;9747;48.536;12.522;2023-10-09T14:26:26;8.75;;;3.13;;
19225;SDS011;9747;48.536;12.522;2023-10-09T14:28:55;13.80;;;3.67;;
19225;SDS011;9747;48.536;12.522;2023-10-09T14:31:24;8.32;;;3.33;;
19225;SDS011;9747;48.536;12.522;2023-10-09T14:33:54;10.98;;;4.00;;
19225;SDS011;9747;48.536;12.522;2023-10-09T14:36:23;12.75;;;4.25;;
19225;SDS011;9747;48.536;12.522;2023-10-09T14:38:58;15.50;;;3.90;;
19225;SDS011;9747;48.536;12.522;2023-10-09T14:41:26;12.93;;;3.50;;
19225;SDS011;9747;48.536;12.522;2023-10-09T14:43:58;15.05;;;4.22;;
19225;SDS011;9747;48.536;12.522;2023-10-09T14:46:26;12.05;;;4.00;;
19225;SDS011;9747;48.536;12.522;2023-10-09T14:48:55;14.68;;;3.97;;
19225;SDS011;9747;48.536;12.522;2023-10-09T14:51:23;11.18;;;3.60;;
19225;SDS011;9747;48.536;12.522;2023-10-09T14:53:56;9.77;;;3.50;;
19225;SDS011;9747;48.536;12.522;2023-10-09T14:56:26;15.80;;;4.28;;
19225;SDS011;9747;48.536;12.522;2023-10-09T14:58:58;13.27;;;3.67;;
19225;SDS011;9747;48.536;12.522;2023-10-09T15:01:27;13.77;;;3.72;;
19225;SDS011;9747;48.536;12.522;2023-10-09T15:03:56;11.25;;;3.42;;
19225;SDS011;9747;48.536;12.522;2023-10-09T15:06:26;11.52;;;3.80;;
19225;SDS011;9747;48.536;12.522;2023-10-09T15:08:55;6.93;;;3.10;;
19225;SDS011;9747;48.536;12.522;2023-10-09T15:11:25;15.57;;;3.45;;
19225;SDS011;9747;48.536;12.522;2023-10-09T15:13:54;10.88;;;3.63;;
19225;SDS011;9747;48.536;12.522;2023-10-09T15:16:24;11.77;;;3.00;;
19225;SDS011;9747;48.536;12.522;2023-10-09T15:18:55;11.27;;;3.40;;
19225;SDS011;9747;48.536;12.522;2023-10-09T15:21:30;8.75;;;3.40;;
19225;SDS011;9747;48.536;12.522;2023-10-09T15:23:58;6.40;;;2.88;;
19225;SDS011;9747;48.536;12.522;2023-10-09T15:26:26;8.93;;;2.83;;
19225;SDS011;9747;48.536;12.522;2023-10-09T15:28:59;9.02;;;2.90;;
19225;SDS011;9747;48.536;12.522;2023-10-09T15:31:31;8.00;;;3.00;;
19225;SDS011;9747;48.536;12.522;2023-10-09T15:33:59;12.45;;;6.00;;
19225;SDS011;9747;48.536;12.522;2023-10-09T15:36:27;12.57;;;6.90;;
19225;SDS011;9747;48.536;12.522;2023-10-09T15:38:58;11.05;;;4.47;;